createdAt,value
2023-06-17T00:02:16.648Z,4.55
2023-06-17T00:04:48.606Z,5.40
2023-06-17T00:07:20.371Z,4.68
2023-06-17T00:09:51.955Z,5.32
2023-06-17T00:12:25.516Z,5.20
2023-06-17T00:14:58.394Z,6.70
2023-06-17T00:17:33.564Z,5.75
2023-06-17T00:20:13.383Z,4.95
2023-06-17T00:22:45.845Z,5.00
2023-06-17T00:25:17.530Z,4.85
2023-06-17T00:27:49.129Z,7.05
2023-06-17T00:30:20.999Z,5.18
2023-06-17T00:32:52.973Z,5.93
2023-06-17T00:35:24.588Z,4.90
2023-06-17T00:37:56.198Z,5.50
2023-06-17T00:40:28.142Z,5.30
2023-06-17T00:43:00.175Z,5.22
2023-06-17T00:45:39.739Z,5.45
2023-06-17T00:48:12.363Z,7.32
2023-06-17T00:50:46.571Z,5.55
2023-06-17T00:53:18.556Z,4.47
2023-06-17T00:55:51.011Z,6.65
2023-06-17T00:58:23.650Z,7.35
2023-06-17T01:00:55.365Z,6.45
2023-06-17T01:03:27.088Z,4.60
2023-06-17T01:06:04.483Z,6.07
2023-06-17T01:08:45.725Z,7.07
2023-06-17T01:11:21.355Z,6.95
2023-06-17T01:13:57.326Z,6.85
2023-06-17T01:16:33.199Z,5.72
2023-06-17T01:19:07.049Z,5.25
2023-06-17T01:21:39.769Z,7.30
2023-06-17T01:24:14.136Z,5.72
2023-06-17T01:26:45.746Z,5.53
2023-06-17T01:29:17.487Z,5.07
2023-06-17T01:31:50.807Z,6.70
2023-06-17T01:34:45.470Z,6.18
2023-06-17T01:37:27.235Z,5.50
2023-06-17T01:40:01.890Z,6.25
2023-06-17T01:42:37.765Z,4.82
2023-06-17T01:45:10.566Z,5.45
2023-06-17T01:47:43.333Z,5.45
2023-06-17T01:50:20.281Z,8.13
2023-06-17T01:52:52.616Z,5.82
2023-06-17T01:55:24.300Z,6.05
2023-06-17T01:57:55.998Z,5.60
2023-06-17T02:00:27.793Z,6.57
2023-06-17T02:02:59.543Z,7.50
2023-06-17T02:05:31.187Z,4.95
2023-06-17T02:08:05.758Z,5.85
2023-06-17T02:10:37.362Z,7.80
2023-06-17T02:13:11.718Z,5.45
2023-06-17T02:15:44.102Z,6.68
2023-06-17T02:18:15.860Z,5.90
2023-06-17T02:20:47.817Z,6.10
2023-06-17T02:23:19.703Z,6.00
2023-06-17T02:25:52.076Z,6.25
2023-06-17T02:28:23.720Z,6.63
2023-06-17T02:30:55.915Z,5.35
2023-06-17T02:33:27.674Z,5.43
2023-06-17T02:35:59.263Z,5.28
2023-06-17T02:38:31.304Z,5.10
2023-06-17T02:41:02.875Z,6.15
2023-06-17T02:43:34.522Z,7.63
2023-06-17T02:46:06.372Z,7.70
2023-06-17T02:48:38.044Z,6.82
2023-06-17T02:51:10.568Z,7.47
2023-06-17T02:53:42.313Z,7.22
2023-06-17T02:56:13.943Z,7.53
2023-06-17T02:58:46.863Z,8.85
2023-06-17T03:01:19.354Z,8.15
2023-06-17T03:03:56.123Z,8.00
2023-06-17T03:06:27.895Z,7.93
2023-06-17T03:08:59.509Z,7.80
2023-06-17T03:11:31.299Z,5.43
2023-06-17T03:14:03.960Z,6.22
2023-06-17T03:16:35.952Z,5.43
2023-06-17T03:19:08.034Z,6.40
2023-06-17T03:21:42.185Z,6.07
2023-06-17T03:24:13.860Z,6.25
2023-06-17T03:26:46.364Z,6.95
2023-06-17T03:29:18.043Z,5.72
2023-06-17T03:31:49.728Z,9.27
2023-06-17T03:34:21.707Z,7.22
2023-06-17T03:36:53.799Z,5.57
2023-06-17T03:39:25.464Z,6.22
2023-06-17T03:41:57.103Z,6.40
2023-06-17T03:44:28.745Z,7.55
2023-06-17T03:47:00.971Z,10.60
2023-06-17T03:49:32.712Z,8.30
2023-06-17T03:52:04.793Z,6.80
2023-06-17T03:54:36.475Z,9.73
2023-06-17T03:57:08.154Z,5.75
2023-06-17T03:59:39.815Z,5.43
2023-06-17T04:02:12.593Z,6.03
2023-06-17T04:04:44.504Z,6.88
2023-06-17T04:07:16.252Z,6.80
2023-06-17T04:09:57.993Z,7.70
2023-06-17T04:12:38.942Z,8.75
2023-06-17T04:15:10.719Z,7.05
2023-06-17T04:17:42.403Z,8.57
2023-06-17T04:20:14.153Z,7.00
2023-06-17T04:22:46.025Z,7.88
2023-06-17T04:25:21.854Z,6.18
2023-06-17T04:27:54.854Z,7.05
2023-06-17T04:30:26.650Z,6.80
2023-06-17T04:33:01.344Z,7.43
2023-06-17T04:35:33.169Z,6.72
2023-06-17T04:38:05.492Z,6.10
2023-06-17T04:40:37.952Z,11.18
2023-06-17T04:43:11.008Z,6.75
2023-06-17T04:45:43.032Z,5.95
2023-06-17T04:48:15.697Z,7.85
2023-06-17T04:50:48.982Z,7.32
2023-06-17T04:53:20.567Z,6.78
2023-06-17T04:55:52.588Z,8.73
2023-06-17T04:58:24.231Z,6.32
2023-06-17T05:00:55.831Z,8.50
2023-06-17T05:03:27.472Z,5.25
2023-06-17T05:05:59.061Z,5.47
2023-06-17T05:08:30.683Z,7.13
2023-06-17T05:11:02.234Z,6.43
2023-06-17T05:13:33.839Z,5.97
2023-06-17T05:16:05.871Z,5.68
2023-06-17T05:18:37.452Z,5.28
2023-06-17T05:21:09.230Z,7.70
2023-06-17T05:23:40.846Z,5.72
2023-06-17T05:26:12.508Z,8.30
2023-06-17T05:28:44.640Z,5.63
2023-06-17T05:31:16.464Z,7.90
2023-06-17T05:33:48.158Z,6.47
2023-06-17T05:36:19.816Z,6.60
2023-06-17T05:38:51.964Z,7.30
2023-06-17T05:41:23.578Z,5.68
2023-06-17T05:43:55.202Z,6.05
2023-06-17T05:46:26.830Z,5.55
2023-06-17T05:48:58.575Z,5.45
2023-06-17T05:51:30.216Z,8.18
2023-06-17T05:54:01.891Z,6.35
2023-06-17T05:56:33.653Z,7.50
2023-06-17T05:59:05.236Z,6.32
2023-06-17T06:01:36.875Z,5.20
2023-06-17T06:04:08.612Z,5.72
2023-06-17T06:06:40.293Z,6.55
2023-06-17T06:09:12.188Z,6.53
2023-06-17T06:11:43.835Z,7.25
2023-06-17T06:14:18.806Z,8.93
2023-06-17T06:16:51.184Z,6.10
2023-06-17T06:19:22.871Z,6.47
2023-06-17T06:21:54.509Z,9.45
2023-06-17T06:24:26.117Z,8.20
2023-06-17T06:26:57.926Z,7.90
2023-06-17T06:29:29.481Z,8.18
2023-06-17T06:32:01.892Z,8.65
2023-06-17T06:34:34.081Z,6.40
2023-06-17T06:37:06.157Z,8.45
2023-06-17T06:39:37.729Z,6.90
2023-06-17T06:42:09.757Z,8.13
2023-06-17T06:44:41.362Z,7.90
2023-06-17T06:47:12.971Z,8.27
2023-06-17T06:49:44.724Z,13.52
2023-06-17T06:52:16.495Z,8.05
2023-06-17T06:54:48.226Z,8.68
2023-06-17T06:57:19.939Z,8.57
2023-06-17T06:59:52.740Z,7.78
2023-06-17T07:02:24.469Z,8.40
2023-06-17T07:04:56.200Z,7.95
2023-06-17T07:07:27.940Z,8.60
2023-06-17T07:09:59.890Z,7.60
2023-06-17T07:12:31.688Z,7.18
2023-06-17T07:15:03.699Z,9.48
2023-06-17T07:17:35.309Z,9.25
2023-06-17T07:20:07.731Z,7.72
2023-06-17T07:22:39.366Z,6.57
2023-06-17T07:25:11.085Z,7.85
2023-06-17T07:27:42.790Z,8.25
2023-06-17T07:30:14.623Z,10.00
2023-06-17T07:32:46.372Z,10.13
2023-06-17T07:35:18.572Z,9.23
2023-06-17T07:37:53.118Z,7.57
2023-06-17T07:40:24.728Z,9.90
2023-06-17T07:42:56.505Z,8.27
2023-06-17T07:45:28.310Z,10.20
2023-06-17T07:48:00.265Z,11.23
2023-06-17T07:50:31.920Z,8.65
2023-06-17T07:53:03.583Z,8.52
2023-06-17T07:55:35.439Z,8.82
2023-06-17T07:58:07.113Z,9.10
2023-06-17T08:00:38.820Z,9.25
2023-06-17T08:03:10.795Z,11.20
2023-06-17T08:05:42.514Z,9.98
2023-06-17T08:08:14.147Z,10.32
2023-06-17T08:10:46.029Z,12.48
2023-06-17T08:13:17.786Z,12.50
2023-06-17T08:15:51.111Z,11.88
2023-06-17T08:18:22.852Z,18.50
2023-06-17T08:20:54.532Z,10.35
2023-06-17T08:23:26.137Z,11.70
2023-06-17T08:25:58.046Z,13.27
2023-06-17T08:28:29.676Z,9.88
2023-06-17T08:31:01.532Z,9.25
2023-06-17T08:33:33.797Z,10.48
2023-06-17T08:36:05.802Z,16.35
2023-06-17T08:38:37.983Z,9.95
2023-06-17T08:41:09.570Z,12.82
2023-06-17T08:43:42.401Z,9.80
2023-06-17T08:46:15.546Z,14.15
2023-06-17T08:48:49.834Z,9.85
2023-06-17T08:53:53.661Z,10.00
2023-06-17T08:56:25.480Z,11.07
2023-06-17T08:58:57.881Z,12.20
2023-06-17T09:01:30.069Z,10.93
2023-06-17T09:04:02.581Z,9.02
2023-06-17T09:06:34.237Z,11.82
2023-06-17T09:09:06.597Z,10.52
2023-06-17T09:11:38.278Z,11.27
2023-06-17T09:14:10.037Z,12.55
2023-06-17T09:16:41.909Z,13.77
2023-06-17T09:19:14.874Z,12.27
2023-06-17T09:21:49.771Z,11.35
2023-06-17T09:24:31.131Z,20.85
2023-06-17T09:27:02.972Z,13.57
2023-06-17T09:29:37.797Z,9.68
2023-06-17T09:32:09.621Z,17.02
2023-06-17T09:34:49.266Z,14.23
2023-06-17T09:37:21.696Z,17.50
2023-06-17T09:39:53.410Z,19.65
2023-06-17T09:42:31.456Z,24.58
2023-06-17T09:45:08.610Z,18.95
2023-06-17T09:47:40.716Z,15.52
2023-06-17T09:50:13.183Z,17.70
2023-06-17T09:52:45.045Z,15.52
2023-06-17T09:55:16.965Z,12.20
2023-06-17T09:57:54.786Z,20.17
2023-06-17T10:00:28.421Z,16.38
2023-06-17T10:03:00.313Z,16.67
2023-06-17T10:05:32.072Z,14.82
2023-06-17T10:08:05.346Z,15.63
2023-06-17T10:10:37.786Z,17.80
2023-06-17T10:13:10.810Z,20.95
2023-06-17T10:15:42.909Z,26.45
2023-06-17T10:18:16.352Z,24.50
2023-06-17T10:20:51.916Z,24.77
2023-06-17T10:23:24.738Z,43.40
2023-06-17T10:25:56.421Z,25.65
2023-06-17T10:29:11.641Z,23.08
2023-06-17T10:31:44.458Z,32.15
2023-06-17T10:34:21.005Z,19.73
2023-06-17T10:37:01.959Z,28.25
2023-06-17T10:39:33.634Z,20.95
2023-06-17T10:42:14.389Z,23.75
2023-06-17T10:44:47.127Z,19.17
2023-06-17T10:47:23.783Z,18.50
2023-06-17T10:49:55.998Z,27.25
2023-06-17T10:52:30.359Z,27.42
2023-06-17T10:55:04.228Z,16.00
2023-06-17T10:57:37.312Z,25.20
2023-06-17T11:00:13.524Z,21.60
2023-06-17T11:02:45.253Z,19.60
2023-06-17T11:05:17.991Z,18.13
2023-06-17T11:07:50.436Z,24.33
2023-06-17T11:10:26.079Z,23.60
2023-06-17T11:12:58.505Z,23.48
2023-06-17T11:15:30.230Z,24.75
2023-06-17T11:18:05.593Z,23.63
2023-06-17T11:20:37.235Z,23.77
2023-06-17T11:23:08.831Z,28.58
2023-06-17T11:25:45.608Z,20.30
2023-06-17T11:28:17.779Z,25.23
2023-06-17T11:30:51.090Z,23.20
2023-06-17T11:33:24.607Z,27.00
2023-06-17T11:35:56.375Z,19.15
2023-06-17T11:38:28.250Z,22.95
2023-06-17T11:41:00.583Z,36.78
2023-06-17T11:43:32.831Z,19.30
2023-06-17T11:46:04.811Z,29.77
2023-06-17T11:48:36.887Z,24.65
2023-06-17T11:51:08.871Z,31.63
2023-06-17T11:53:40.630Z,19.63
2023-06-17T11:56:15.392Z,26.98
2023-06-17T11:58:47.371Z,18.92
2023-06-17T12:01:26.023Z,26.30
2023-06-17T12:03:58.076Z,16.73
2023-06-17T12:06:30.060Z,19.55
2023-06-17T12:09:05.378Z,21.70
2023-06-17T12:11:40.639Z,18.67
2023-06-17T12:14:13.976Z,25.15
2023-06-17T12:16:47.992Z,22.80
2023-06-17T12:19:25.426Z,27.48
2023-06-17T12:21:56.996Z,37.08
2023-06-17T12:24:28.772Z,21.85
2023-06-17T12:27:00.538Z,24.15
2023-06-17T12:29:32.265Z,36.40
2023-06-17T12:32:04.561Z,24.70
2023-06-17T12:34:36.283Z,19.45
2023-06-17T12:37:08.857Z,28.10
2023-06-17T12:39:41.274Z,20.30
2023-06-17T12:42:13.525Z,23.95
2023-06-17T12:44:45.970Z,18.63
2023-06-17T12:47:19.551Z,19.30
2023-06-17T12:49:51.339Z,18.05
2023-06-17T12:52:23.228Z,37.72
2023-06-17T12:55:02.488Z,23.95
2023-06-17T12:57:34.518Z,27.23
2023-06-17T13:00:07.580Z,23.42
2023-06-17T13:02:39.381Z,29.17
2023-06-17T13:05:11.432Z,18.15
2023-06-17T13:07:43.062Z,37.95
2023-06-17T13:10:14.618Z,39.92
2023-06-17T13:12:46.324Z,23.77
2023-06-17T13:15:18.252Z,31.20
2023-06-17T13:17:50.392Z,39.70
2023-06-17T13:20:22.928Z,28.70
2023-06-17T13:22:55.195Z,30.48
2023-06-17T13:25:27.577Z,32.40
2023-06-17T13:27:59.459Z,28.15
2023-06-17T13:30:31.040Z,38.40
2023-06-17T13:33:02.863Z,33.70
2023-06-17T13:35:34.622Z,26.73
2023-06-17T13:38:06.474Z,19.42
2023-06-17T13:40:38.100Z,33.35
2023-06-17T13:43:09.835Z,26.23
2023-06-17T13:45:41.581Z,21.08
2023-06-17T13:48:13.618Z,20.13
2023-06-17T13:50:45.301Z,35.92
2023-06-17T13:53:17.007Z,20.55
2023-06-17T13:55:49.801Z,19.38
2023-06-17T13:58:21.401Z,27.52
2023-06-17T14:00:53.625Z,27.65
2023-06-17T14:03:25.544Z,21.77
2023-06-17T14:05:57.464Z,15.85
2023-06-17T14:08:29.185Z,17.75
2023-06-17T14:11:00.885Z,29.38
2023-06-17T14:13:32.497Z,31.00
2023-06-17T14:16:04.205Z,18.45
2023-06-17T14:18:35.863Z,30.45
2023-06-17T14:21:08.044Z,24.20
2023-06-17T14:24:15.480Z,44.83
2023-06-17T14:26:47.151Z,30.50
2023-06-17T14:29:18.720Z,33.20
2023-06-17T14:31:50.319Z,14.23
2023-06-17T14:34:21.913Z,26.05
2023-06-17T14:36:53.608Z,23.10
2023-06-17T14:39:25.180Z,19.05
2023-06-17T14:41:56.952Z,33.70
2023-06-17T14:44:28.759Z,28.17
2023-06-17T14:47:00.456Z,11.52
2023-06-17T14:49:32.046Z,27.08
2023-06-17T14:52:03.903Z,27.30
2023-06-17T14:54:35.799Z,18.95
2023-06-17T14:57:07.780Z,23.40
2023-06-17T14:59:39.612Z,23.38
2023-06-17T15:02:25.572Z,20.42
2023-06-17T15:04:57.448Z,31.50
2023-06-17T15:07:29.084Z,32.25
2023-06-17T15:10:01.397Z,15.32
2023-06-17T15:12:33.448Z,14.10
2023-06-17T15:15:06.533Z,12.75
2023-06-17T15:17:38.545Z,15.90
2023-06-17T15:20:11.311Z,36.10
2023-06-17T15:22:42.968Z,30.55
2023-06-17T15:25:14.657Z,21.35
2023-06-17T15:27:46.455Z,14.40
2023-06-17T15:30:18.413Z,19.77
2023-06-17T15:32:52.849Z,14.18
2023-06-17T15:35:24.944Z,7.60
2023-06-17T15:37:56.979Z,11.48
2023-06-17T15:40:28.669Z,13.35
2023-06-17T15:43:00.340Z,7.30
2023-06-17T15:45:32.082Z,9.00
2023-06-17T15:48:04.034Z,6.07
2023-06-17T15:50:36.212Z,7.60
2023-06-17T15:53:07.788Z,7.72
2023-06-17T15:55:39.581Z,8.82
2023-06-17T15:58:11.194Z,7.95
2023-06-17T16:00:42.778Z,8.57
2023-06-17T16:03:26.395Z,8.80
2023-06-17T16:06:00.004Z,6.97
2023-06-17T16:08:31.771Z,6.68
2023-06-17T16:11:04.754Z,10.52
2023-06-17T16:13:38.610Z,6.65
2023-06-17T16:16:10.365Z,7.15
2023-06-17T16:18:42.044Z,6.55
2023-06-17T16:21:13.730Z,6.43
2023-06-17T16:23:45.380Z,7.63
2023-06-17T16:26:16.954Z,5.25
2023-06-17T16:28:48.635Z,5.22
2023-06-17T16:31:20.515Z,4.45
2023-06-17T16:33:52.108Z,6.45
2023-06-17T16:36:23.817Z,4.18
2023-06-17T16:38:55.711Z,3.88
2023-06-17T16:41:27.391Z,7.35
2023-06-17T16:43:59.031Z,6.30
2023-06-17T16:46:30.752Z,4.95
2023-06-17T16:49:02.519Z,4.68
2023-06-17T16:51:34.271Z,5.88
2023-06-17T16:54:06.762Z,6.47
2023-06-17T16:59:12.001Z,6.10
2023-06-17T17:01:43.815Z,5.10
2023-06-17T17:04:15.544Z,7.10
2023-06-17T17:06:47.155Z,5.43
2023-06-17T17:09:18.735Z,5.63
2023-06-17T17:11:50.378Z,5.00
2023-06-17T17:14:23.338Z,9.05
2023-06-17T17:16:55.072Z,6.00
2023-06-17T17:19:27.483Z,5.22
2023-06-17T17:21:59.057Z,8.18
2023-06-17T17:24:30.900Z,4.82
2023-06-17T17:27:02.686Z,6.30
2023-06-17T17:29:35.411Z,4.95
2023-06-17T17:32:07.443Z,7.47
2023-06-17T17:34:39.317Z,4.70
2023-06-17T17:37:10.953Z,4.03
2023-06-17T17:39:42.593Z,5.28
2023-06-17T17:42:14.817Z,5.57
2023-06-17T17:44:46.456Z,5.38
2023-06-17T17:47:18.182Z,4.85
2023-06-17T17:49:49.970Z,4.72
2023-06-17T17:52:21.966Z,5.43
2023-06-17T17:55:01.802Z,6.07
2023-06-17T17:57:34.740Z,4.70
2023-06-17T18:00:09.071Z,5.40
2023-06-17T18:02:40.890Z,6.32
2023-06-17T18:05:12.632Z,5.85
2023-06-17T18:07:44.309Z,5.53
2023-06-17T18:10:15.965Z,5.55
2023-06-17T18:12:47.665Z,4.55
2023-06-17T18:15:19.286Z,6.78
2023-06-17T18:17:50.986Z,4.63
2023-06-17T18:20:22.948Z,7.95
2023-06-17T18:22:54.700Z,5.72
2023-06-17T18:25:26.329Z,7.28
2023-06-17T18:27:57.908Z,5.18
2023-06-17T18:30:29.624Z,4.93
2023-06-17T18:33:01.734Z,4.53
2023-06-17T18:35:34.272Z,8.05
2023-06-17T18:38:07.926Z,5.45
2023-06-17T18:40:41.024Z,5.57
2023-06-17T18:43:13.789Z,6.68
2023-06-17T18:45:45.740Z,5.75
2023-06-17T18:48:17.415Z,4.68
2023-06-17T18:50:52.233Z,4.90
2023-06-17T18:53:23.985Z,5.30
2023-06-17T18:55:56.138Z,6.18
2023-06-17T18:58:27.805Z,4.25
2023-06-17T19:00:59.750Z,4.10
2023-06-17T19:03:31.977Z,4.82
2023-06-17T19:06:04.542Z,5.07
2023-06-17T19:08:36.277Z,6.78
2023-06-17T19:11:08.237Z,5.55
2023-06-17T19:13:39.949Z,6.43
2023-06-17T19:16:11.813Z,4.32
2023-06-17T19:18:43.618Z,4.60
2023-06-17T19:21:15.838Z,4.78
2023-06-17T19:23:47.559Z,4.60
2023-06-17T19:26:19.214Z,5.80
2023-06-17T19:28:51.982Z,3.65
2023-06-17T19:31:25.979Z,6.70
2023-06-17T19:33:57.609Z,16.85
2023-06-17T19:36:30.157Z,5.40
2023-06-17T19:39:02.037Z,4.47
2023-06-17T19:41:33.813Z,4.40
2023-06-17T19:44:07.707Z,4.93
2023-06-17T19:46:40.411Z,4.38
2023-06-17T19:49:12.046Z,3.83
2023-06-17T19:51:43.752Z,4.43
2023-06-17T19:54:16.483Z,6.28
2023-06-17T19:56:48.613Z,4.90
2023-06-17T19:59:21.363Z,5.95
2023-06-17T20:01:53.086Z,7.55
2023-06-17T20:04:24.807Z,8.05
2023-06-17T20:06:56.913Z,6.50
2023-06-17T20:09:31.657Z,6.13
2023-06-17T20:12:03.631Z,5.20
2023-06-17T20:14:35.770Z,5.15
2023-06-17T20:17:08.678Z,5.88
2023-06-17T20:19:40.547Z,5.45
2023-06-17T20:22:12.165Z,6.10
2023-06-17T20:24:43.814Z,5.60
2023-06-17T20:27:15.587Z,5.55
2023-06-17T20:29:47.939Z,7.78
2023-06-17T20:32:20.527Z,7.40
2023-06-17T20:34:52.479Z,6.45
2023-06-17T20:37:24.124Z,5.22
2023-06-17T20:39:56.052Z,5.40
2023-06-17T20:42:27.890Z,5.55
2023-06-17T20:44:59.571Z,7.82
2023-06-17T20:47:31.564Z,9.52
2023-06-17T20:50:03.940Z,10.55
2023-06-17T20:52:35.954Z,12.65
2023-06-17T20:55:08.398Z,11.65
2023-06-17T20:57:41.022Z,11.02
2023-06-17T21:00:13.778Z,13.40
2023-06-17T21:02:45.884Z,9.40
2023-06-17T21:05:17.707Z,7.80
2023-06-17T21:07:49.402Z,8.65
2023-06-17T21:10:21.288Z,11.10
2023-06-17T21:12:53.273Z,6.47
2023-06-17T21:15:24.966Z,7.90
2023-06-17T21:17:56.797Z,8.63
2023-06-17T21:20:28.426Z,8.80
2023-06-17T21:23:00.880Z,7.85
2023-06-17T21:25:32.475Z,6.63
2023-06-17T21:28:04.284Z,6.13
2023-06-17T21:30:35.920Z,6.90
2023-06-17T21:33:07.640Z,8.07
2023-06-17T21:35:39.339Z,6.43
2023-06-17T21:38:11.206Z,5.22
2023-06-17T21:40:42.765Z,6.22
2023-06-17T21:43:14.494Z,8.00
2023-06-17T21:45:46.202Z,8.15
2023-06-17T21:48:18.154Z,6.45
2023-06-17T21:50:49.831Z,9.38
2023-06-17T21:53:21.449Z,6.97
2023-06-17T21:55:53.181Z,6.68
2023-06-17T21:58:24.810Z,6.57
2023-06-17T22:00:56.424Z,6.05
2023-06-17T22:03:28.130Z,7.75
2023-06-17T22:05:59.938Z,6.38
2023-06-17T22:08:42.204Z,8.48
2023-06-17T22:11:15.600Z,6.60
2023-06-17T22:13:47.351Z,6.20
2023-06-17T22:16:19.387Z,5.90
2023-06-17T22:18:51.636Z,8.40
2023-06-17T22:21:23.841Z,6.78
2023-06-17T22:23:56.599Z,7.68
2023-06-17T22:26:28.814Z,5.97
2023-06-17T22:29:00.468Z,5.40
2023-06-17T22:31:32.096Z,6.80
2023-06-17T22:34:03.704Z,5.68
2023-06-17T22:36:35.721Z,6.68
2023-06-17T22:39:07.279Z,5.70
2023-06-17T22:41:39.012Z,7.28
2023-06-17T22:44:10.700Z,6.05
2023-06-17T22:46:42.394Z,6.25
2023-06-17T22:49:14.096Z,6.47
2023-06-17T22:51:45.740Z,5.38
2023-06-17T22:54:17.545Z,6.70
2023-06-17T22:56:49.210Z,5.07
2023-06-17T22:59:21.226Z,5.65
2023-06-17T23:01:52.931Z,5.78
2023-06-17T23:04:24.573Z,6.82
2023-06-17T23:06:56.136Z,6.13
2023-06-17T23:09:27.757Z,6.65
2023-06-17T23:11:59.389Z,6.25
2023-06-17T23:14:31.180Z,7.88
2023-06-17T23:17:02.875Z,6.82
2023-06-17T23:19:34.490Z,4.97
2023-06-17T23:22:06.339Z,4.63
2023-06-17T23:24:39.041Z,6.32
2023-06-17T23:27:10.989Z,5.82
2023-06-17T23:29:42.616Z,5.75
2023-06-17T23:32:14.238Z,4.72
2023-06-17T23:34:45.845Z,4.88
2023-06-17T23:37:19.116Z,6.85
2023-06-17T23:39:50.828Z,5.50
2023-06-17T23:42:22.375Z,7.35
2023-06-17T23:44:54.093Z,4.78
2023-06-17T23:47:26.031Z,5.38
2023-06-17T23:49:57.700Z,5.25
2023-06-17T23:52:29.259Z,6.43
2023-06-17T23:55:02.452Z,7.50
2023-06-17T23:57:34.333Z,5.75
